Time;durP1;ratioP1;P1;durP2;ratioP2;P2;SDS_P1;SDS_P2;PMS_P1;PMS_P2;Temp;Humidity;BMP_temperature;BMP_pressure;BME280_temperature;BME280_humidity;BME280_pressure;Samples;Min_cycle;Max_cycle;Signal;HPM_P1;HPM_P2
2023/05/15 00:00:45;;;;;;;;;;;;;;;10.21;100.00;101388.44;5052985;28;20349;-51
2023/05/15 00:03:11;;;;;;;;;;;;;;;10.19;100.00;101390.06;5053135;28;19908;-46
2023/05/15 00:05:36;;;;;;;;;;;;;;;10.19;100.00;101378.91;5052083;28;20390;-49
2023/05/15 00:08:01;;;;;;;;;;;;;;;10.17;100.00;101386.56;5053031;28;20042;-50
2023/05/15 00:10:26;;;;;;;;;;;;;;;10.17;100.00;101385.69;5052459;28;20276;-47
2023/05/15 00:12:51;;;;;;;;;;;;;;;10.16;100.00;101383.91;5052105;28;19913;-48
2023/05/15 00:15:17;;;;;;;;;;;;;;;10.16;100.00;101373.59;5052335;28;19970;-48
2023/05/15 00:17:42;;;;;;;;;;;;;;;10.14;100.00;101375.28;5052792;28;20387;-49
2023/05/15 00:20:08;;;;;;;;;;;;;;;10.09;100.00;101367.34;5052024;28;19974;-47
2023/05/15 00:22:33;;;;;;;;;;;;;;;10.07;100.00;101363.84;5052502;28;19927;-50
2023/05/15 00:24:59;;;;;;;;;;;;;;;10.04;100.00;101379.16;5052775;28;20003;-49
2023/05/15 00:27:25;;;;;;;;;;;;;;;10.01;100.00;101371.31;5051772;28;19995;-50
2023/05/15 00:29:50;;;;;;;;;;;;;;;9.98;100.00;101369.50;5052687;28;19912;-48
2023/05/15 00:32:15;;;;;;;;;;;;;;;9.94;100.00;101365.06;5052375;28;20322;-49
2023/05/15 00:34:41;;;;;;;;;;;;;;;9.92;100.00;101370.94;5052313;28;19913;-48
2023/05/15 00:37:07;;;;;;;;;;;;;;;9.89;100.00;101364.84;5052763;28;19912;-51
2023/05/15 00:39:32;;;;;;;;;;;;;;;9.85;100.00;101356.94;5052049;28;20361;-49
2023/05/15 00:41:58;;;;;;;;;;;;;;;9.82;100.00;101373.13;5052046;28;20003;-50
2023/05/15 00:44:25;;;;;;;;;;;;;;;9.78;100.00;101360.09;5052159;28;19913;-50
2023/05/15 00:46:50;;;;;;;;;;;;;;;9.72;100.00;101352.97;5052547;28;19909;-47
2023/05/15 00:49:17;;;;;;;;;;;;;;;9.68;100.00;101357.13;5051868;28;20276;-48
2023/05/15 00:51:42;;;;;;;;;;;;;;;9.66;100.00;101352.75;5053654;28;19912;-50
2023/05/15 00:54:08;;;;;;;;;;;;;;;9.63;100.00;101362.88;5055777;28;19912;-51
2023/05/15 00:56:34;;;;;;;;;;;;;;;9.59;100.00;101361.00;5055604;28;19919;-49
2023/05/15 00:59:01;;;;;;;;;;;;;;;9.55;100.00;101353.19;5056032;28;19912;-50
2023/05/15 01:01:27;;;;;;;;;;;;;;;9.52;100.00;101360.75;5054976;28;19919;-50
2023/05/15 01:03:52;;;;;;;;;;;;;;;9.51;100.00;101350.41;5055998;28;19913;-49
2023/05/15 01:06:18;;;;;;;;;;;;;;;9.49;100.00;101347.75;5055655;28;19978;-47
2023/05/15 01:08:46;;;;;;;;;;;;;;;9.48;100.00;101346.00;5055351;28;19913;-49
2023/05/15 01:11:15;;;;;;;;;;;;;;;9.48;100.00;101340.84;5055937;28;19913;-50
2023/05/15 01:13:40;;;;;;;;;;;;;;;9.49;100.00;101342.63;5055600;28;20347;-51
2023/05/15 01:16:06;;;;;;;;;;;;;;;9.48;100.00;101346.00;5055198;28;20384;-48
2023/05/15 01:18:32;;;;;;;;;;;;;;;9.46;100.00;101337.31;5055460;28;19913;-47
2023/05/15 01:21:00;;;;;;;;;;;;;;;9.43;100.00;101339.78;5055677;28;19912;-48
2023/05/15 01:23:25;;;;;;;;;;;;;;;9.38;100.00;101346.44;5054576;28;19919;-48
2023/05/15 01:26:02;;;;;;;;;;;;;;;9.36;100.00;101342.91;5055458;28;19913;-50
2023/05/15 01:28:30;;;;;;;;;;;;;;;9.32;100.00;101339.34;5055124;28;19916;-50
2023/05/15 01:30:58;;;;;;;;;;;;;;;9.31;100.00;101339.25;5054939;28;20051;-48
2023/05/15 01:33:33;;;;;;;;;;;;;;;9.28;100.00;101339.13;5055102;28;19928;-49
2023/05/15 01:36:00;;;;;;;;;;;;;;;9.27;100.00;101337.38;5055021;28;19916;-50
2023/05/15 01:38:39;;;;;;;;;;;;;;;9.22;100.00;101332.91;5054536;28;19912;-50
2023/05/15 01:41:07;;;;;;;;;;;;;;;9.16;100.00;101330.06;5055404;28;19944;-48
2023/05/15 01:43:33;;;;;;;;;;;;;;;9.13;100.00;101332.53;5054047;28;20386;-52
2023/05/15 01:45:59;;;;;;;;;;;;;;;9.12;100.00;101337.59;5055040;28;20391;-47
2023/05/15 01:48:26;;;;;;;;;;;;;;;9.07;100.00;101339.97;5054825;28;19913;-51
2023/05/15 01:50:53;;;;;;;;;;;;;;;9.04;100.00;101332.13;5054236;28;19913;-49
2023/05/15 01:53:19;;;;;;;;;;;;;;;9.00;100.00;101323.41;5054619;28;20423;-48
2023/05/15 01:55:44;;;;;;;;;;;;;;;8.97;100.00;101324.94;5055063;28;19913;-51
2023/05/15 01:58:10;;;;;;;;;;;;;;;8.93;100.00;101323.94;5054243;28;19913;-47
2023/05/15 02:00:35;;;;;;;;;;;;;;;8.90;100.00;101327.25;5054527;28;19923;-47
2023/05/15 02:03:00;;;;;;;;;;;;;;;8.88;100.00;101321.16;5054469;28;20000;-49
2023/05/15 02:05:26;;;;;;;;;;;;;;;8.86;100.00;101322.78;5054308;28;19912;-48
2023/05/15 02:07:52;;;;;;;;;;;;;;;8.84;100.00;101321.81;5054715;28;19912;-47
2023/05/15 02:10:17;;;;;;;;;;;;;;;8.85;100.00;101312.44;5054379;28;19912;-49
2023/05/15 02:12:42;;;;;;;;;;;;;;;8.85;100.00;101313.31;5054216;28;19919;-51
2023/05/15 02:15:08;;;;;;;;;;;;;;;8.84;100.00;101314.09;5054488;28;19952;-48
2023/05/15 02:17:34;;;;;;;;;;;;;;;8.84;100.00;101318.38;5053944;28;20319;-47
2023/05/15 02:19:59;;;;;;;;;;;;;;;8.83;100.00;101317.53;5053955;28;19967;-48
2023/05/15 02:22:24;;;;;;;;;;;;;;;8.84;100.00;101323.53;5054133;28;19919;-47
2023/05/15 02:24:49;;;;;;;;;;;;;;;8.85;100.00;101315.00;5054133;28;19913;-47
2023/05/15 02:27:26;;;;;;;;;;;;;;;8.85;100.00;101312.44;5053840;28;20383;-51
2023/05/15 02:29:57;;;;;;;;;;;;;;;8.83;100.00;101322.66;5054410;28;19913;-50
2023/05/15 02:32:37;;;;;;;;;;;;;;;8.83;100.00;101316.63;5053728;28;19917;-47
2023/05/15 02:35:21;;;;;;;;;;;;;;;8.82;100.00;101326.03;5054096;28;19913;-51
2023/05/15 02:37:48;;;;;;;;;;;;;;;8.80;100.00;101327.66;5054272;28;19913;-51
2023/05/15 02:40:14;;;;;;;;;;;;;;;8.76;100.00;101330.03;5053380;28;20000;-51
2023/05/15 02:42:39;;;;;;;;;;;;;;;8.72;100.00;101332.44;5053762;28;20350;-48
2023/05/15 02:45:06;;;;;;;;;;;;;;;8.69;100.00;101326.31;5053883;28;19912;-50
2023/05/15 02:47:32;;;;;;;;;;;;;;;8.67;100.00;101326.22;5052665;28;20015;-49
2023/05/15 02:49:58;;;;;;;;;;;;;;;8.63;100.00;101323.47;5054102;28;19948;-49
2023/05/15 02:52:23;;;;;;;;;;;;;;;8.60;100.00;101329.34;5053570;28;19956;-51
2023/05/15 02:54:48;;;;;;;;;;;;;;;8.60;100.00;101333.56;5053271;28;19955;-51
2023/05/15 02:57:13;;;;;;;;;;;;;;;8.57;100.00;101335.22;5053698;28;19913;-50
2023/05/15 02:59:39;;;;;;;;;;;;;;;8.57;100.00;101324.94;5053256;28;19966;-49
2023/05/15 03:02:04;;;;;;;;;;;;;;;8.55;100.00;101326.53;5053026;28;19917;-47
2023/05/15 03:04:30;;;;;;;;;;;;;;;8.55;100.00;101323.13;5053554;28;20356;-51
2023/05/15 03:06:55;;;;;;;;;;;;;;;8.51;100.00;101316.94;5053498;28;19913;-51
2023/05/15 03:09:20;;;;;;;;;;;;;;;8.50;100.00;101317.75;5052688;28;19912;-46
2023/05/15 03:11:45;;;;;;;;;;;;;;;8.47;100.00;101321.88;5053539;28;20003;-49
2023/05/15 03:14:10;;;;;;;;;;;;;;;8.44;100.00;101321.69;5052220;28;19920;-51
2023/05/15 03:16:37;;;;;;;;;;;;;;;8.40;100.00;101318.09;5052399;28;20007;-47
2023/05/15 03:19:02;;;;;;;;;;;;;;;8.39;100.00;101313.78;5053644;28;19919;-51
2023/05/15 03:21:28;;;;;;;;;;;;;;;8.35;100.00;101317.91;5052923;28;20003;-47
2023/05/15 03:23:53;;;;;;;;;;;;;;;8.32;100.00;101317.75;5052884;28;19966;-51
2023/05/15 03:26:18;;;;;;;;;;;;;;;8.30;100.00;101318.50;5052941;28;20016;-51
2023/05/15 03:28:43;;;;;;;;;;;;;;;8.27;100.00;101315.78;5053058;28;19912;-49
2023/05/15 03:31:08;;;;;;;;;;;;;;;8.23;100.00;101313.06;5052900;28;19924;-51
2023/05/15 03:33:33;;;;;;;;;;;;;;;8.19;100.00;101318.00;5053100;28;19944;-48
2023/05/15 03:35:59;;;;;;;;;;;;;;;8.16;100.00;101311.03;5052356;28;20007;-48
2023/05/15 03:38:24;;;;;;;;;;;;;;;8.13;100.00;101310.88;5052970;28;19916;-46
2023/05/15 03:40:49;;;;;;;;;;;;;;;8.10;100.00;101304.75;5053327;28;19920;-50
2023/05/15 03:43:14;;;;;;;;;;;;;;;8.08;100.00;101308.09;5052358;28;19966;-47
2023/05/15 03:45:39;;;;;;;;;;;;;;;8.05;100.00;101301.94;5052773;28;20336;-47
2023/05/15 03:48:05;;;;;;;;;;;;;;;8.02;100.00;101310.38;5053221;28;19913;-51
2023/05/15 03:50:30;;;;;;;;;;;;;;;8.00;100.00;101295.72;5052207;28;19913;-48
2023/05/15 03:52:55;;;;;;;;;;;;;;;7.97;100.00;101295.59;5053240;28;19913;-49
2023/05/15 03:55:20;;;;;;;;;;;;;;;7.97;100.00;101295.59;5052974;28;19912;-47
2023/05/15 03:57:46;;;;;;;;;;;;;;;7.95;100.00;101295.47;5052257;28;19912;-50
2023/05/15 04:00:11;;;;;;;;;;;;;;;7.94;100.00;101295.41;5052979;28;19913;-48
2023/05/15 04:02:36;;;;;;;;;;;;;;;7.91;100.00;101299.63;5052626;28;19913;-49
2023/05/15 04:05:02;;;;;;;;;;;;;;;7.91;100.00;101298.72;5052604;28;19975;-48
2023/05/15 04:07:28;;;;;;;;;;;;;;;7.91;100.00;101291.91;5052639;28;19919;-49
2023/05/15 04:09:53;;;;;;;;;;;;;;;7.90;100.00;101292.72;5052720;28;19913;-51
2023/05/15 04:12:18;;;;;;;;;;;;;;;7.90;100.00;101294.38;5052080;28;20442;-51
2023/05/15 04:14:43;;;;;;;;;;;;;;;7.89;100.00;101295.22;5052560;28;19917;-47
2023/05/15 04:17:08;;;;;;;;;;;;;;;7.89;100.00;101296.09;5052456;28;19917;-50
2023/05/15 04:19:34;;;;;;;;;;;;;;;7.93;100.00;101285.94;5052129;28;19920;-51
2023/05/15 04:21:59;;;;;;;;;;;;;;;7.98;100.00;101299.88;5052856;28;19944;-48
2023/05/15 04:24:24;;;;;;;;;;;;;;;8.00;100.00;101293.16;5052184;28;20330;-51
2023/05/15 04:26:49;;;;;;;;;;;;;;;8.03;100.00;101298.41;5054971;28;20361;-50
2023/05/15 04:29:14;;;;;;;;;;;;;;;8.08;100.00;101294.38;5056558;28;19913;-49
2023/05/15 04:31:40;;;;;;;;;;;;;;;8.17;100.00;101302.53;5055885;28;19927;-50
2023/05/15 04:34:05;;;;;;;;;;;;;;;8.21;100.00;101309.56;5056162;28;19912;-48
2023/05/15 04:36:30;;;;;;;;;;;;;;;8.24;100.00;101308.81;5055969;28;20048;-50
2023/05/15 04:38:56;;;;;;;;;;;;;;;8.28;100.00;101315.00;5056050;28;19919;-51
2023/05/15 04:41:21;;;;;;;;;;;;;;;8.33;100.00;101318.66;5055595;28;19916;-48
2023/05/15 04:43:46;;;;;;;;;;;;;;;8.34;100.00;101315.25;5056234;28;19920;-50
2023/05/15 04:46:11;;;;;;;;;;;;;;;8.36;100.00;101323.91;5055908;28;19913;-48
2023/05/15 04:48:36;;;;;;;;;;;;;;;8.38;100.00;101332.59;5055475;28;19913;-51
2023/05/15 04:51:02;;;;;;;;;;;;;;;8.37;100.00;101325.69;5056006;28;19917;-47
2023/05/15 04:53:27;;;;;;;;;;;;;;;8.36;100.00;101331.63;5054979;28;19913;-48
2023/05/15 04:55:52;;;;;;;;;;;;;;;8.34;100.00;101322.94;5055971;28;19999;-48
2023/05/15 04:58:17;;;;;;;;;;;;;;;8.32;100.00;101328.03;5055748;28;19912;-50
2023/05/15 05:00:42;;;;;;;;;;;;;;;8.30;100.00;101323.63;5055062;28;19912;-48
2023/05/15 05:03:08;;;;;;;;;;;;;;;8.32;100.00;101327.16;5056026;28;20020;-51
2023/05/15 05:05:33;;;;;;;;;;;;;;;8.35;100.00;101332.44;5055730;28;19958;-48
2023/05/15 05:07:58;;;;;;;;;;;;;;;8.39;100.00;101329.19;5055045;28;20280;-51
2023/05/15 05:10:23;;;;;;;;;;;;;;;8.45;100.00;101334.59;5055492;28;19944;-50
2023/05/15 05:12:48;;;;;;;;;;;;;;;8.52;100.00;101340.94;5055566;28;19942;-49
2023/05/15 05:15:13;;;;;;;;;;;;;;;8.60;100.00;101343.84;5054924;28;19924;-48
2023/05/15 05:17:39;;;;;;;;;;;;;;;8.66;100.00;101344.13;5055171;28;19912;-48
2023/05/15 05:20:07;;;;;;;;;;;;;;;8.68;100.00;101343.41;5055562;28;19916;-50
2023/05/15 05:22:32;;;;;;;;;;;;;;;8.70;100.00;101343.47;5054654;28;20414;-50
2023/05/15 05:24:58;;;;;;;;;;;;;;;8.69;100.00;101340.03;5055343;28;19988;-47
2023/05/15 05:27:23;;;;;;;;;;;;;;;8.67;100.00;101343.34;5055042;28;20418;-49
2023/05/15 05:29:48;;;;;;;;;;;;;;;8.67;100.00;101346.78;5054825;28;19913;-51
2023/05/15 05:32:13;;;;;;;;;;;;;;;8.68;100.00;101363.97;5055327;28;20391;-51
2023/05/15 05:34:38;;;;;;;;;;;;;;;8.70;100.00;101358.88;5055047;28;19947;-47
2023/05/15 05:37:04;;;;;;;;;;;;;;;8.77;100.00;101353.22;5053756;28;20368;-47
2023/05/15 05:39:29;;;;;;;;;;;;;;;8.84;100.00;101354.38;5055013;28;20007;-47
2023/05/15 05:41:54;;;;;;;;;;;;;;;8.89;100.00;101364.03;5055021;28;19913;-51
2023/05/15 05:44:19;;;;;;;;;;;;;;;8.94;100.00;101360.81;5054266;28;19982;-49
2023/05/15 05:46:45;;;;;;;;;;;;;;;8.96;100.00;101364.31;5055161;28;19916;-48
2023/05/15 05:49:10;;;;;;;;;;;;;;;8.98;100.00;101370.41;5055003;28;20356;-50
2023/05/15 05:51:35;;;;;;;;;;;;;;;9.00;100.00;101363.63;5054297;28;19978;-51
2023/05/15 05:54:01;;;;;;;;;;;;;;;9.08;100.00;101372.59;5055094;28;20003;-50
2023/05/15 05:56:26;;;;;;;;;;;;;;;9.21;100.00;101364.59;5054351;28;19917;-48
2023/05/15 05:58:51;;;;;;;;;;;;;;;9.30;100.00;101365.81;5054430;28;19919;-50
2023/05/15 06:01:17;;;;;;;;;;;;;;;9.27;100.00;101360.50;5054608;28;20004;-48
2023/05/15 06:03:42;;;;;;;;;;;;;;;9.30;100.00;101355.53;5054037;28;19948;-50
2023/05/15 06:06:07;;;;;;;;;;;;;;;9.41;100.00;101363.69;5054816;28;20345;-51
2023/05/15 06:08:32;;;;;;;;;;;;;;;9.53;100.00;101365.09;5054263;28;19915;-51
2023/05/15 06:10:58;;;;;;;;;;;;;;;9.58;100.00;101360.16;5054007;28;19912;-48
2023/05/15 06:13:23;;;;;;;;;;;;;;;9.65;100.00;101374.16;5054351;28;19917;-51
2023/05/15 06:15:49;;;;;;;;;;;;;;;9.76;100.00;101372.00;5054504;28;20004;-49
2023/05/15 06:18:14;;;;;;;;;;;;;;;9.75;100.00;101360.84;5053858;28;19913;-50
2023/05/15 06:20:41;;;;;;;;;;;;;;;9.82;100.00;101372.25;5054408;28;19913;-48
2023/05/15 06:23:06;;;;;;;;;;;;;;;9.87;100.00;101368.19;5054296;28;19912;-52
2023/05/15 06:25:32;;;;;;;;;;;;;;;10.02;100.00;101361.06;5053560;28;19936;-51
2023/05/15 06:27:57;;;;;;;;;;;;;;;10.20;100.00;101373.81;5054206;28;19913;-47
2023/05/15 06:30:22;;;;;;;;;;;;;;;10.35;100.00;101375.22;5053646;28;19962;-51
2023/05/15 06:32:47;;;;;;;;;;;;;;;10.45;100.00;101372.22;5053691;28;19913;-50
2023/05/15 06:35:12;;;;;;;;;;;;;;;10.53;100.00;101365.69;5054296;28;20348;-48
2023/05/15 06:37:38;;;;;;;;;;;;;;;10.59;100.00;101369.28;5053640;28;19920;-50
2023/05/15 06:40:03;;;;;;;;;;;;;;;10.67;100.00;101357.56;5053628;28;19919;-50
2023/05/15 06:42:29;;;;;;;;;;;;;;;10.78;100.00;101353.69;5053759;28;19974;-46
2023/05/15 06:44:55;;;;;;;;;;;;;;;10.80;100.00;101359.78;5053697;28;19912;-50
2023/05/15 06:47:20;;;;;;;;;;;;;;;10.70;100.00;101357.69;5053351;28;19967;-51
2023/05/15 06:49:45;;;;;;;;;;;;;;;10.66;100.00;101363.53;5053934;28;20273;-51
2023/05/15 06:52:10;;;;;;;;;;;;;;;10.68;100.00;101364.50;5053547;28;19912;-50
2023/05/15 06:54:36;;;;;;;;;;;;;;;10.72;100.00;101363.78;5052992;28;19947;-46
2023/05/15 06:57:01;;;;;;;;;;;;;;;10.90;100.00;101361.00;5053686;28;19912;-51
2023/05/15 06:59:26;;;;;;;;;;;;;;;11.09;100.00;101357.38;5053068;28;19920;-51
2023/05/15 07:01:52;;;;;;;;;;;;;;;11.23;100.00;101362.16;5053215;28;20311;-48
2023/05/15 07:04:17;;;;;;;;;;;;;;;11.31;100.00;101364.19;5053301;28;20353;-51
2023/05/15 07:06:42;;;;;;;;;;;;;;;11.32;100.00;101357.31;5053366;28;19912;-50
2023/05/15 07:09:08;;;;;;;;;;;;;;;11.30;100.00;101359.84;5053048;28;19996;-50
2023/05/15 07:11:36;;;;;;;;;;;;;;;11.38;100.00;101360.09;5053255;28;19952;-53
2023/05/15 07:14:01;;;;;;;;;;;;;;;11.55;100.00;101354.66;5052331;28;19924;-51
2023/05/15 07:16:26;;;;;;;;;;;;;;;11.66;100.00;101356.75;5053356;28;19921;-53
2023/05/15 07:18:51;;;;;;;;;;;;;;;11.82;100.00;101358.13;5053400;28;20288;-50
2023/05/15 07:21:18;;;;;;;;;;;;;;;12.01;100.00;101359.63;5052309;28;20047;-51
2023/05/15 07:23:43;;;;;;;;;;;;;;;12.24;100.00;101366.34;5053598;28;20007;-51
2023/05/15 07:26:08;;;;;;;;;;;;;;;12.48;100.00;101361.06;5052968;28;19995;-51
2023/05/15 07:28:33;;;;;;;;;;;;;;;12.67;100.00;101362.50;5052436;28;19952;-50
2023/05/15 07:30:58;;;;;;;;;;;;;;;12.74;100.00;101359.22;5053482;28;19913;-52
2023/05/15 07:33:24;;;;;;;;;;;;;;;12.72;100.00;101355.75;5052841;28;19913;-52
2023/05/15 07:35:49;;;;;;;;;;;;;;;12.69;100.00;101353.03;5052781;28;19917;-49
2023/05/15 07:38:14;;;;;;;;;;;;;;;12.76;100.00;101349.81;5053161;28;20264;-49
2023/05/15 07:40:40;;;;;;;;;;;;;;;12.81;96.95;101343.06;5052785;28;19913;-49
2023/05/15 07:43:05;;;;;;;;;;;;;;;12.83;98.49;101349.16;5052617;28;20000;-48
2023/05/15 07:45:30;;;;;;;;;;;;;;;12.88;97.96;101351.00;5053023;28;20020;-51
2023/05/15 07:47:57;;;;;;;;;;;;;;;12.91;97.23;101351.06;5052849;28;19912;-51
2023/05/15 07:50:22;;;;;;;;;;;;;;;12.90;98.42;101350.22;5052384;28;20008;-56
2023/05/15 07:52:48;;;;;;;;;;;;;;;12.95;99.53;101348.63;5053131;28;20404;-56
2023/05/15 07:55:13;;;;;;;;;;;;;;;13.08;100.00;101349.84;5052888;28;19913;-64
2023/05/15 07:57:41;;;;;;;;;;;;;;;13.94;100.00;101345.13;5051992;28;20331;-56
2023/05/15 08:00:12;;;;;;;;;;;;;;;14.07;99.72;101335.94;5053192;28;19955;-55
2023/05/15 08:02:37;;;;;;;;;;;;;;;13.94;96.93;101334.75;5056560;28;20353;-54
2023/05/15 08:05:03;;;;;;;;;;;;;;;13.75;94.52;101339.53;5056562;28;19966;-55
2023/05/15 08:07:30;;;;;;;;;;;;;;;13.69;95.93;101341.94;5056763;28;20331;-55
2023/05/15 08:09:55;;;;;;;;;;;;;;;13.60;96.13;101340.00;5056651;28;19913;-53
2023/05/15 08:12:20;;;;;;;;;;;;;;;13.56;96.75;101339.91;5055880;28;19912;-55
2023/05/15 08:14:47;;;;;;;;;;;;;;;13.58;97.50;101339.09;5056752;28;19996;-55
2023/05/15 08:18:22;;;;;;;36.75;31.63;;;;;;;14.46;89.49;101335.94;5110073;27;20392;-54
2023/05/15 08:20:48;;;;;;;34.67;31.10;;;;;;;14.46;90.11;101335.06;5110672;28;20054;-54
2023/05/15 08:23:13;;;;;;;35.38;31.70;;;;;;;14.61;89.49;101337.09;5110618;28;20028;-54
2023/05/15 08:25:39;;;;;;;34.80;31.02;;;;;;;14.69;87.53;101330.38;5110064;28;20402;-54
2023/05/15 08:28:04;;;;;;;33.95;29.90;;;;;;;14.85;86.00;101333.28;5110817;28;20040;-51
2023/05/15 08:30:30;;;;;;;35.20;30.02;;;;;;;15.12;85.98;101338.16;5110107;28;20472;-54
2023/05/15 08:32:55;;;;;;;32.58;29.23;;;;;;;14.88;82.14;101343.75;5109974;28;20527;-55
2023/05/15 08:35:20;;;;;;;34.60;29.75;;;;;;;14.75;79.75;101342.63;5110112;28;20035;-53
2023/05/15 08:37:46;;;;;;;32.00;28.48;;;;;;;14.92;82.99;101343.81;5110358;28;20471;-54
2023/05/15 08:40:11;;;;;;;33.38;29.85;;;;;;;15.02;82.82;101344.88;5110076;28;20024;-50
2023/05/15 08:42:44;;;;;;;35.75;31.92;;;;;;;15.05;81.86;101342.34;5110095;28;20440;-58
2023/05/15 08:45:11;;;;;;;36.17;31.30;;;;;;;15.42;84.40;101337.81;5110369;28;20020;-55
2023/05/15 08:47:39;;;;;;;34.38;30.08;;;;;;;15.41;79.25;101341.25;5109455;28;20035;-54
2023/05/15 08:50:15;;;;;;;32.05;28.60;;;;;;;15.57;79.51;101347.63;5110360;28;20035;-56
2023/05/15 08:52:44;;;;;;;31.63;28.23;;;;;;;15.39;76.85;101340.38;5109776;28;20023;-54
2023/05/15 08:55:09;;;;;;;33.45;28.70;;;;;;;15.62;78.83;101340.78;5110265;28;20031;-54
2023/05/15 08:57:35;;;;;;;33.33;29.75;;;;;;;15.59;78.16;101334.63;5109366;28;20044;-54
2023/05/15 09:00:03;;;;;;;34.25;29.15;;;;;;;15.67;76.84;101338.22;5109400;28;20032;-53
2023/05/15 09:02:29;;;;;;;31.95;28.48;;;;;;;15.88;78.04;101336.84;5109562;28;20407;-54
2023/05/15 09:04:54;;;;;;;32.75;29.20;;;;;;;16.27;74.77;101335.72;5109854;28;20080;-54
2023/05/15 09:07:20;;;;;;;32.15;28.52;;;;;;;16.57;77.24;101331.75;5109188;28;20032;-53
2023/05/15 09:09:46;;;;;;;31.08;26.60;;;;;;;16.84;76.11;101332.97;5109872;28;20024;-54
2023/05/15 09:12:14;;;;;;;31.92;28.30;;;;;;;16.98;76.85;101335.72;5109572;28;20521;-53
2023/05/15 09:14:40;;;;;;;31.17;27.88;;;;;;;17.02;74.23;101337.53;5108861;28;20036;-53
2023/05/15 09:17:05;;;;;;;30.05;26.88;;;;;;;17.10;73.87;101339.34;5109375;28;20047;-52
2023/05/15 09:19:33;;;;;;;31.20;28.00;;;;;;;16.87;72.01;101330.38;5109096;28;20038;-54
2023/05/15 09:22:22;;;;;;;;;;;;;;;17.25;77.61;101335.16;5109398;28;20390;-55
2023/05/15 09:24:48;;;;;;;31.23;27.33;;;;;;;17.20;73.46;101326.44;5109643;28;19935;-55
2023/05/15 09:27:14;;;;;;;29.40;24.42;;;;;;;17.46;67.27;101336.22;5109241;28;20467;-55
2023/05/15 09:29:40;;;;;;;30.20;27.00;;;;;;;17.32;70.22;101336.09;5095811;28;20032;-55
2023/05/15 09:32:08;;;;;;;29.25;26.08;;;;;;;17.71;71.20;101335.53;5095759;28;20024;-55
2023/05/15 09:34:36;;;;;;;30.38;25.10;;;;;;;17.44;67.10;101331.88;5095778;28;20467;-55
2023/05/15 09:37:03;;;;;;;28.92;25.60;;;;;;;17.98;68.68;101334.03;5095471;28;20024;-54
2023/05/15 09:39:29;;;;;;;;;;;;;;;18.19;71.88;101337.66;5095754;28;20058;-55
2023/05/15 09:42:05;;;;;;;27.50;22.70;;;;;;;17.91;71.23;101340.06;5095021;28;19951;-54
2023/05/15 09:44:31;;;;;;;24.55;21.88;;;;;;;17.70;70.82;101338.13;5095745;28;20020;-55
2023/05/15 09:46:56;;;;;;;27.08;22.75;;;;;;;17.53;70.18;101332.78;5095901;28;20024;-54
2023/05/15 09:49:22;;;;;;;25.23;20.52;;;;;;;17.43;70.05;101334.47;5094742;28;20467;-55
2023/05/15 09:51:49;;;;;;;24.45;20.88;;;;;;;17.12;69.83;101334.16;5095539;28;20067;-55
2023/05/15 09:54:16;;;;;;;23.02;20.60;;;;;;;17.01;72.41;101336.63;5095237;28;20031;-55
2023/05/15 09:56:43;;;;;;;30.15;21.77;;;;;;;16.76;74.29;101335.47;5094617;28;20028;-54
2023/05/15 09:59:13;;;;;;;25.17;22.58;;;;;;;16.75;74.55;101334.59;5095425;28;20031;-54
2023/05/15 10:01:42;;;;;;;27.70;21.63;;;;;;;16.58;76.02;101338.72;5094912;28;20048;-55
2023/05/15 10:04:08;;;;;;;28.17;22.25;;;;;;;16.82;76.32;101339.88;5094682;28;20017;-54
2023/05/15 10:06:37;;;;;;;26.45;23.40;;;;;;;16.78;75.85;101350.25;5094809;28;20039;-54
2023/05/15 10:09:04;;;;;;;24.02;21.52;;;;;;;16.71;74.34;101351.03;5094861;28;20024;-54
2023/05/15 10:11:33;;;;;;;28.77;23.55;;;;;;;16.66;76.26;101349.22;5094571;28;20024;-53
2023/05/15 10:13:58;;;;;;;26.40;22.35;;;;;;;16.57;78.74;101349.97;5094951;28;20023;-54
2023/05/15 10:16:24;;;;;;;25.38;22.67;;;;;;;16.26;77.02;101346.97;5094341;28;20049;-55
2023/05/15 10:18:51;;;;;;;27.95;24.33;;;;;;;16.43;78.90;101347.19;5094378;28;20024;-55
2023/05/15 10:21:19;;;;;;;31.17;23.60;;;;;;;16.36;80.00;101350.53;5094754;28;20103;-55
2023/05/15 10:23:46;;;;;;;29.58;25.27;;;;;;;16.24;78.79;101348.66;5094575;28;20027;-55
2023/05/15 10:26:20;;;;;;;28.92;25.83;;;;;;;16.25;79.94;101360.81;5094497;28;20032;-55
2023/05/15 10:28:47;;;;;;;28.55;25.55;;;;;;;16.32;80.10;101357.47;5094564;28;20468;-55
2023/05/15 10:31:12;;;;;;;29.33;26.33;;;;;;;16.15;80.06;101356.31;5094370;28;20032;-55
2023/05/15 10:33:39;;;;;;;29.65;25.52;;;;;;;15.93;79.84;101356.00;5094432;28;20075;-56
2023/05/15 10:36:06;;;;;;;31.35;24.52;;;;;;;15.96;81.97;101359.53;5094396;28;20056;-55
2023/05/15 10:38:33;;;;;;;28.75;25.63;;;;;;;15.76;79.96;101359.19;5093777;28;20377;-55
2023/05/15 10:40:59;;;;;;;32.63;24.65;;;;;;;15.87;82.63;101361.97;5093597;28;20016;-55
2023/05/15 10:43:26;;;;;;;28.05;24.85;;;;;;;15.48;80.97;101358.72;5094055;28;20088;-55
2023/05/15 10:45:52;;;;;;;27.83;24.85;;;;;;;15.70;82.01;101353.88;5094034;28;20103;-55
2023/05/15 10:48:18;;;;;;;29.58;26.25;;;;;;;15.66;82.93;101352.09;5094204;28;20055;-55
2023/05/15 10:50:44;;;;;;;29.80;26.60;;;;;;;15.77;84.28;101349.66;5094058;28;20059;-55
2023/05/15 10:53:09;;;;;;;28.60;24.00;;;;;;;15.92;83.09;101349.03;5093851;28;20372;-55
2023/05/15 10:55:35;;;;;;;28.70;25.75;;;;;;;16.28;84.34;101346.13;5094015;28;20040;-56
2023/05/15 10:58:01;;;;;;;28.40;25.30;;;;;;;16.07;80.83;101351.88;5093857;28;20365;-54
2023/05/15 11:00:30;;;;;;;30.23;26.92;;;;;;;16.12;79.50;101352.81;5093148;28;20047;-55
2023/05/15 11:02:55;;;;;;;30.02;26.90;;;;;;;16.08;80.54;101351.03;5093980;28;20403;-55
2023/05/15 11:05:22;;;;;;;32.45;26.60;;;;;;;16.08;81.56;101358.84;5093408;28;20471;-55
2023/05/15 11:08:18;;;;;;;32.30;28.73;;;;;;;15.99;83.32;101358.69;5093602;28;20032;-55
2023/05/15 11:10:43;;;;;;;30.95;27.73;;;;;;;15.74;84.61;101353.09;5093658;28;20036;-55
2023/05/15 11:13:10;;;;;;;30.98;27.20;;;;;;;15.69;85.58;101359.94;5093471;28;20401;-55
2023/05/15 11:15:44;;;;;;;31.13;27.70;;;;;;;15.29;84.86;101367.03;5093674;28;20036;-54
2023/05/15 11:18:09;;;;;;;30.80;27.35;;;;;;;14.93;85.57;101355.09;5093261;28;20052;-54
2023/05/15 11:20:40;;;;;;;32.88;28.42;;;;;;;14.90;87.14;101357.59;5093002;28;20161;-53
2023/05/15 11:23:06;;;;;;;29.55;26.33;;;;;;;15.02;87.74;101352.66;5093530;28;20504;-54
2023/05/15 11:25:33;;;;;;;30.80;27.35;;;;;;;14.97;87.91;101349.09;5093138;28;20495;-55
2023/05/15 11:27:58;;;;;;;32.30;28.17;;;;;;;15.05;87.94;101357.91;5093022;28;20024;-52
2023/05/15 11:30:37;;;;;;;33.15;29.63;;;;;;;15.18;89.58;101347.78;5093240;28;20031;-56
2023/05/15 11:33:10;;;;;;;36.42;32.53;;;;;;;15.15;90.10;101352.03;5093239;28;20379;-56
2023/05/15 11:35:46;;;;;;;36.70;32.70;;;;;;;15.05;90.74;101351.84;5092816;28;20136;-54
2023/05/15 11:38:18;;;;;;;37.97;33.88;;;;;;;14.86;92.84;101354.09;5093306;28;20027;-49
2023/05/15 11:40:47;;;;;;;40.42;36.03;;;;;;;14.78;90.09;101347.84;5093031;28;20365;-54
2023/05/15 11:43:19;;;;;;;44.00;39.35;;;;;;;14.73;90.08;101349.47;5092947;28;20035;-54
2023/05/15 11:45:48;;;;;;;44.22;38.42;;;;;;;14.41;90.48;101350.53;5093241;28;20028;-54
2023/05/15 11:48:16;;;;;;;45.72;40.55;;;;;;;14.31;93.04;101348.56;5093155;28;20105;-55
2023/05/15 11:50:42;;;;;;;48.17;40.38;;;;;;;14.17;93.67;101345.66;5093169;28;20034;-53
2023/05/15 11:53:08;;;;;;;46.05;40.80;;;;;;;14.16;93.78;101342.22;5092823;28;20020;-57
2023/05/15 11:55:42;;;;;;;46.25;41.13;;;;;;;14.10;94.46;101354.13;5092563;28;20027;-51
2023/05/15 11:58:15;;;;;;;47.00;40.53;;;;;;;14.25;95.36;101356.22;5093013;28;20479;-53
2023/05/15 12:00:43;;;;;;;44.00;39.20;;;;;;;14.39;94.32;101347.00;5092846;28;20032;-54
2023/05/15 12:03:17;;;;;;;47.15;39.55;;;;;;;14.51;95.30;101346.41;5092566;28;20024;-54